• Join FlightAware (Why Join?)
  • Login
  • US Flag 
02:34AM EDT


 

Airport Tracker/Info


-or-


 

Live Flight TrackerFlight Track Log ✈ UAL3776 ✈ 06-Jul-2013 ✈ KORD - KROC

Flight Track Log - Related Links

Times and Time Zones

All times are in EDT time to prevent confusion due to time zone crossing. See the UAL3776 flight status page for this flight to view local times or setup timezone preferences in your user account.

Time Position Orientation Groundspeed Altitude Reporting Facility
EDT Latitude Longitude Course Direction KTS MPH feet Rate Location/Type
05:55PM 41.9333 -87.8833 90° East 195 224 2,600  Level Chicago TRACON
05:56PM 41.9500 -87.8000 75° East 233 268 4,900 2,340 Climbing Chicago TRACON
05:57PM 42.0425 -87.4195 79° East  Level FlightAware Approximate
05:57PM 41.9650 -87.7014 78° East 264 304 7,600  Level Chicago Center
05:58PM 42.0669 -87.2570 78° East  Level FlightAware Approximate
05:58PM 41.9881 -87.5989 73° East 284 327 10,300  Level Chicago Center
05:59PM 42.0925 -87.0948 77° East  Level FlightAware Approximate
05:59PM 42.0142 -87.4919 72° East 298 343 12,000  Level Chicago Center
06:00PM 42.1167 -86.9324 90° East  Level FlightAware Approximate
06:00PM 42.0431 -87.3672 73° East 342 394 14,100  Level Chicago Center
06:01PM 42.0717 -87.2389 73° East 358 412 15,800 1,740 Climbing Chicago Center
06:02PM 42.1017 -87.1058 73° East 371 427 17,700 1,740 Climbing Chicago Center
06:03PM 42.1150 -86.9650 83° East 380 437 19,500 1,500 Climbing Chicago Center
06:04PM 42.1208 -86.7911 87° East 389 448 20,800 1,080 Climbing Chicago Center
06:05PM 42.1261 -86.6539 87° East 407 468 21,800 1,020 Climbing Chicago Center
06:06PM 42.1317 -86.4964 87° East 419 482 23,000 1,140 Climbing Chicago Center
06:07PM 42.1369 -86.3344 87° East 430 495 24,200 1,380 Climbing Chicago Center
06:08PM 42.1444 -86.1394 87° East 433 498 25,900 1,260 Climbing Chicago Center
06:09PM 42.1428 -85.9744 91° East 438 504 26,900 780 Climbing Chicago Center
06:10PM 42.1417 -85.8214 91° East 445 512 27,600 780 Climbing Chicago Center
06:11PM 42.1400 -85.6517 91° East 456 525 28,600 660 Climbing Chicago Center
06:12PM 42.1383 -85.4442 91° East 464 534 29,000 180 Climbing Chicago Center
06:13PM 42.1353 -85.2675 91° East 472 543 29,000  Level Chicago Center
06:14PM 42.1342 -85.0831 90° East 490 564 29,000  Level Chicago Center
06:16PM 42.1325 -84.9036 91° East 484 557 29,000  Level Chicago Center
06:17PM 42.1492 -84.7222 83° East 489 563 29,000  Level Chicago Center
06:18PM 42.1639 -84.5425 84° East 485 558 29,000  Level Chicago Center
06:19PM 42.1794 -84.3614 83° East 488 562 29,000  Level Chicago Center
06:19PM 42.1906 -84.2014 85° East 477 549 29,000  Level Cleveland Center
06:20PM 42.2047 -84.0172 84° East 487 560 29,000 420 Level Cleveland Center
06:21PM 42.2203 -83.8331 83° East 487 560 29,900 900 Climbing Cleveland Center
06:22PM 42.2336 -83.6514 84° East 492 566 30,900 1,020 Climbing Cleveland Center
06:23PM 42.2486 -83.4808 83° East 497 572 32,000 1,020 Climbing Cleveland Center
06:24PM 42.2617 -83.2822 85° East 492 566 33,000 480 Climbing Cleveland Center
06:25PM 42.2742 -83.1061 84° East 497 572 33,000  Level Cleveland Center
06:26PM 42.3050 -82.9192 77° East 504 580 33,000  Level Cleveland Center
06:27PM 42.3650 -82.7386 66° East 509 586 33,000  Level Cleveland Center
06:28PM 42.4264 -82.5633 65° Northeast 514 592 33,000 -420 Level Cleveland Center
06:29PM 42.4753 -82.3847 70° East 514 592 32,200 -1,320 Descending Cleveland Center
06:30PM 42.4803 -82.1964 88° East 495 570 30,400 -1,620 Descending Cleveland Center
06:31PM 42.4828 -82.0050 89° East 500 575 29,000 -840 Descending Cleveland Center
06:32PM 42.4850 -81.8108 89° East 500 575 28,800 -840 Descending Cleveland Center
06:33PM 42.4889 -81.6222 88° East 500 575 27,400 -900 Descending Cleveland Center
06:34PM 42.4925 -81.4364 88° East 493 567 27,000 -240 Descending Cleveland Center
06:35PM 42.4936 -81.2533 89° East 493 567 27,000  Level Cleveland Center
06:36PM 42.4947 -81.0675 89° East 493 567 27,000  Level Cleveland Center
06:37PM 42.4933 -80.8592 90° East 493 567 27,000  Level Cleveland Center
06:38PM 42.4956 -80.6761 89° East 493 567 27,000  Level Cleveland Center
06:39PM 42.5039 -80.4903 86° East 488 562 27,000  Level Cleveland Center
06:40PM 42.5475 -80.3097 72° East 488 562 27,000  Level Cleveland Center
06:41PM 42.5906 -80.1319 72° East 490 564 27,000  Level Cleveland Center
06:42PM 42.6378 -79.9511 70° East 501 577 27,000 -660 Level Cleveland Center
06:43PM 42.6803 -79.7697 72° East 501 577 25,700 -1,980 Descending Cleveland Center
06:44PM 42.7206 -79.5942 73° East 501 577 23,100 -2,580 Descending Cleveland Center
06:45PM 42.7606 -79.4153 73° East 496 571 20,600 -2,520 Descending Cleveland Center
06:46PM 42.7964 -79.2478 74° East 486 559 18,100 -2,460 Descending Cleveland Center
06:47PM 42.8300 -79.0883 74° East 458 527 15,700 -2,460 Descending Cleveland Center
06:48PM 42.8675 -78.9347 72° East 439 505 13,200 -2,040 Descending Cleveland Center
06:49PM 42.9000 -78.7667 75° East 420 483 11,600 -1,080 Descending Buffalo TRACON
06:50PM 42.9333 -78.6000 75° East 396 456 11,000 -420 Descending Buffalo TRACON
06:51PM 42.9667 -78.4833 69° East 345 397 10,800 -960 Descending Buffalo TRACON
06:52PM 42.9811 -78.3839 79° East 333 383 9,300 -1,680 Descending Cleveland Center
06:53PM 43.0019 -78.2753 75° East 308 354 7,700 -1,260 Descending Cleveland Center
06:54PM 43.0208 -78.1750 76° East 296 341 7,000 -660 Descending Cleveland Center
06:55PM 43.0503 -78.0886 65° Northeast 260 299 6,600 -840 Descending Cleveland Center
06:56PM 43.0858 -78.0078 59° Northeast 247 284 5,400 -1,200 Descending Cleveland Center
06:57PM 43.1236 -77.9264 58° Northeast 258 297 4,300 -1,140 Descending Cleveland Center
06:58PM 43.1592 -77.8425 60° Northeast 234 269 3,200 -1,140 Descending Cleveland Center